Time,TemperatureF,DewpointF,PressureIn,WindDirection,WindDirectionDegrees,WindSpeedMPH,WindSpeedGustMPH,Humidity,HourlyPrecipIn,Conditions,Clouds,dailyrainin,SoftwareType,DateUTC
2013-03-02 00:01:00,47.0,-99.9,-100.00,WSW,242,4.0,6.0,-999,-99.99,,,-99.99,,2013-03-02 08:01:00,
2013-03-02 00:20:00,45.0,-99.9,-100.00,WSW,239,6.0,8.0,-999,-99.99,,,-99.99,,2013-03-02 08:20:00,
2013-03-02 00:32:00,44.0,-99.9,-100.00,WSW,256,4.0,7.0,-999,-99.99,,,-99.99,,2013-03-02 08:32:00,
2013-03-02 00:43:00,44.0,-99.9,-100.00,WSW,256,4.0,7.0,-999,-99.99,,,-99.99,,2013-03-02 08:43:00,
2013-03-02 00:52:00,43.0,-99.9,-100.00,West,266,6.0,6.0,-999,-99.99,,,-99.99,,2013-03-02 08:52:00,
2013-03-02 01:02:00,45.0,-99.9,-100.00,WSW,239,6.0,8.0,-999,-99.99,,,-99.99,,2013-03-02 09:02:00,
2013-03-02 01:11:00,45.0,-99.9,-100.00,WSW,239,6.0,8.0,-999,-99.99,,,-99.99,,2013-03-02 09:11:00,
2013-03-02 01:32:00,43.0,-99.9,-100.00,WSW,246,4.0,10.0,-999,-99.99,,,-99.99,,2013-03-02 09:32:00,
2013-03-02 01:42:00,43.0,-99.9,-100.00,WSW,246,4.0,10.0,-999,-99.99,,,-99.99,,2013-03-02 09:42:00,
2013-03-02 01:52:00,43.0,-99.9,-100.00,WSW,246,4.0,10.0,-999,-99.99,,,-99.99,,2013-03-02 09:52:00,
2013-03-02 02:20:00,43.0,-99.9,-100.00,West,280,3.0,9.0,-999,-99.99,,,-99.99,,2013-03-02 10:20:00,
2013-03-02 02:32:00,43.0,-99.9,-100.00,WSW,254,5.0,8.0,-999,-99.99,,,-99.99,,2013-03-02 10:32:00,
2013-03-02 02:43:00,43.0,-99.9,-100.00,WSW,254,5.0,8.0,-999,-99.99,,,-99.99,,2013-03-02 10:43:00,
2013-03-02 02:52:00,43.0,-99.9,-100.00,WSW,254,5.0,8.0,-999,-99.99,,,-99.99,,2013-03-02 10:52:00,
2013-03-02 03:01:00,43.0,-99.9,-100.00,West,280,3.0,9.0,-999,-99.99,,,-99.99,,2013-03-02 11:01:00,
2013-03-02 03:11:00,43.0,-99.9,-100.00,West,280,3.0,9.0,-999,-99.99,,,-99.99,,2013-03-02 11:11:00,
2013-03-02 03:32:00,43.0,-99.9,-100.00,WSW,238,4.0,7.0,-999,-99.99,,,-99.99,,2013-03-02 11:32:00,
2013-03-02 03:42:00,43.0,-99.9,-100.00,WSW,238,4.0,7.0,-999,-99.99,,,-99.99,,2013-03-02 11:42:00,
2013-03-02 03:52:00,43.0,-99.9,-100.00,WSW,238,4.0,7.0,-999,-99.99,,,-99.99,,2013-03-02 11:52:00,
2013-03-02 04:00:00,43.0,-99.9,-100.00,WSW,257,3.0,5.0,-999,-99.99,,,-99.99,,2013-03-02 12:00:00,
2013-03-02 04:33:00,43.0,-99.9,-100.00,WSW,243,4.0,7.0,-999,-99.99,,,-99.99,,2013-03-02 12:33:00,
2013-03-02 04:43:00,43.0,-99.9,-100.00,WSW,243,4.0,7.0,-999,-99.99,,,-99.99,,2013-03-02 12:43:00,
2013-03-02 04:53:00,43.0,-99.9,-100.00,WSW,257,3.0,5.0,-999,-99.99,,,-99.99,,2013-03-02 12:53:00,
2013-03-02 05:22:00,43.0,-99.9,-100.00,SW,233,6.0,7.0,-999,-99.99,,,-99.99,,2013-03-02 13:22:00,
2013-03-02 05:32:00,43.0,-99.9,-100.00,West,260,4.0,7.0,-999,-99.99,,,-99.99,,2013-03-02 13:32:00,
2013-03-02 05:42:00,43.0,-99.9,-100.00,West,260,4.0,7.0,-999,-99.99,,,-99.99,,2013-03-02 13:42:00,
2013-03-02 05:53:00,43.0,-99.9,-100.00,West,260,4.0,7.0,-999,-99.99,,,-99.99,,2013-03-02 13:53:00,
2013-03-02 06:01:00,43.0,-99.9,-100.00,WSW,242,6.0,6.0,-999,-99.99,,,-99.99,,2013-03-02 14:01:00,
2013-03-02 06:11:00,43.0,-99.9,-100.00,WSW,242,6.0,6.0,-999,-99.99,,,-99.99,,2013-03-02 14:11:00,
2013-03-02 06:32:00,41.0,-99.9,-100.00,WSW,254,6.0,8.0,-999,-99.99,,,-99.99,,2013-03-02 14:32:00,
2013-03-02 06:42:00,41.0,-99.9,-100.00,WSW,254,6.0,8.0,-999,-99.99,,,-99.99,,2013-03-02 14:42:00,
2013-03-02 06:52:00,41.0,-99.9,-100.00,WSW,254,6.0,8.0,-999,-99.99,,,-99.99,,2013-03-02 14:52:00,
2013-03-02 07:00:00,43.0,-99.9,-100.00,SW,236,1.0,3.0,-999,-99.99,,,-99.99,,2013-03-02 15:00:00,
2013-03-02 07:22:00,43.0,-99.9,-100.00,WSW,247,3.0,5.0,-999,-99.99,,,-99.99,,2013-03-02 15:22:00,
2013-03-02 07:32:00,41.0,-99.9,-100.00,West,281,3.0,4.0,-999,-99.99,,,-99.99,,2013-03-02 15:32:00,
2013-03-02 07:42:00,41.0,-99.9,-100.00,West,281,3.0,4.0,-999,-99.99,,,-99.99,,2013-03-02 15:42:00,
2013-03-02 07:52:00,43.0,-99.9,-100.00,SW,236,1.0,3.0,-999,-99.99,,,-99.99,,2013-03-02 15:52:00,
2013-03-02 08:22:00,42.0,-99.9,-100.00,WSW,241,5.0,6.0,-999,-99.99,,,-99.99,,2013-03-02 16:22:00,
2013-03-02 08:32:00,43.0,-99.9,-100.00,West,280,4.0,5.0,-999,-99.99,,,-99.99,,2013-03-02 16:32:00,
2013-03-02 08:42:00,43.0,-99.9,-100.00,West,280,4.0,5.0,-999,-99.99,,,-99.99,,2013-03-02 16:42:00,
2013-03-02 08:52:00,43.0,-99.9,-100.00,West,280,4.0,5.0,-999,-99.99,,,-99.99,,2013-03-02 16:52:00,
2013-03-02 09:01:00,44.0,-99.9,-100.00,WSW,247,5.0,8.0,-999,-99.99,,,-99.99,,2013-03-02 17:01:00,
2013-03-02 09:12:00,44.0,-99.9,-100.00,WSW,247,5.0,8.0,-999,-99.99,,,-99.99,,2013-03-02 17:12:00,
2013-03-02 09:22:00,44.0,-99.9,-100.00,WSW,247,5.0,8.0,-999,-99.99,,,-99.99,,2013-03-02 17:22:00,
2013-03-02 09:32:00,43.0,-99.9,-100.00,West,260,5.0,7.0,-999,-99.99,,,-99.99,,2013-03-02 17:32:00,
2013-03-02 09:42:00,43.0,-99.9,-100.00,West,260,5.0,7.0,-999,-99.99,,,-99.99,,2013-03-02 17:42:00,
2013-03-02 09:52:00,43.0,-99.9,-100.00,West,260,5.0,7.0,-999,-99.99,,,-99.99,,2013-03-02 17:52:00,
2013-03-02 10:32:00,46.0,-99.9,-100.00,WSW,253,7.0,8.0,-999,-99.99,,,-99.99,,2013-03-02 18:32:00,
2013-03-02 10:42:00,46.0,-99.9,-100.00,WSW,253,7.0,8.0,-999,-99.99,,,-99.99,,2013-03-02 18:42:00,
2013-03-02 10:52:00,45.0,-99.9,-100.00,WSW,253,5.0,6.0,-999,-99.99,,,-99.99,,2013-03-02 18:52:00,
2013-03-02 11:02:00,45.0,-99.9,-100.00,West,280,6.0,6.0,-999,-99.99,,,-99.99,,2013-03-02 19:02:00,
2013-03-02 11:12:00,45.0,-99.9,-100.00,West,280,6.0,6.0,-999,-99.99,,,-99.99,,2013-03-02 19:12:00,
2013-03-02 11:22:00,45.0,-99.9,-100.00,West,280,6.0,6.0,-999,-99.99,,,-99.99,,2013-03-02 19:22:00,
2013-03-02 11:32:00,47.0,-99.9,-100.00,West,268,3.0,5.0,-999,-99.99,,,-99.99,,2013-03-02 19:32:00,
2013-03-02 11:43:00,47.0,-99.9,-100.00,West,268,3.0,5.0,-999,-99.99,,,-99.99,,2013-03-02 19:43:00,
2013-03-02 11:52:00,47.0,-99.9,-100.00,West,268,3.0,5.0,-999,-99.99,,,-99.99,,2013-03-02 19:52:00,
2013-03-02 12:02:00,47.0,-99.9,-100.00,West,262,4.0,7.0,-999,-99.99,,,-99.99,,2013-03-02 20:02:00,
2013-03-02 12:12:00,47.0,-99.9,-100.00,West,262,4.0,7.0,-999,-99.99,,,-99.99,,2013-03-02 20:12:00,
2013-03-02 12:22:00,47.0,-99.9,-100.00,West,262,4.0,7.0,-999,-99.99,,,-99.99,,2013-03-02 20:22:00,
2013-03-02 12:32:00,48.0,-99.9,-100.00,West,268,3.0,6.0,-999,-99.99,,,-99.99,,2013-03-02 20:32:00,
2013-03-02 12:42:00,48.0,-99.9,-100.00,West,268,3.0,6.0,-999,-99.99,,,-99.99,,2013-03-02 20:42:00,
2013-03-02 12:53:00,48.0,-99.9,-100.00,West,268,3.0,6.0,-999,-99.99,,,-99.99,,2013-03-02 20:53:00,
2013-03-02 13:32:00,51.0,-99.9,-100.00,WSW,247,5.0,5.0,-999,-99.99,,,-99.99,,2013-03-02 21:32:00,
2013-03-02 13:42:00,51.0,-99.9,-100.00,WSW,247,5.0,5.0,-999,-99.99,,,-99.99,,2013-03-02 21:42:00,
2013-03-02 13:53:00,51.0,-99.9,-100.00,WSW,247,5.0,5.0,-999,-99.99,,,-99.99,,2013-03-02 21:53:00,
2013-03-02 14:32:00,55.0,-99.9,-100.00,WSW,241,10.0,16.0,-999,-99.99,,,-99.99,,2013-03-02 22:32:00,
2013-03-02 14:42:00,55.0,-99.9,-100.00,WSW,241,10.0,16.0,-999,-99.99,,,-99.99,,2013-03-02 22:42:00,
2013-03-02 14:52:00,55.0,-99.9,-100.00,WSW,241,10.0,16.0,-999,-99.99,,,-99.99,,2013-03-02 22:52:00,
2013-03-02 15:32:00,53.0,-99.9,-100.00,WNW,286,16.0,25.0,-999,-99.99,,,-99.99,,2013-03-02 23:32:00,
2013-03-02 15:42:00,53.0,-99.9,-100.00,WNW,286,16.0,25.0,-999,-99.99,,,-99.99,,2013-03-02 23:42:00,
2013-03-02 15:52:00,53.0,-99.9,-100.00,WNW,286,16.0,25.0,-999,-99.99,,,-99.99,,2013-03-02 23:52:00,
2013-03-02 16:32:00,53.0,-99.9,-100.00,WNW,283,14.0,24.0,-999,-99.99,,,-99.99,,2013-03-03 00:32:00,
2013-03-02 16:42:00,53.0,-99.9,-100.00,WNW,283,14.0,24.0,-999,-99.99,,,-99.99,,2013-03-03 00:42:00,
2013-03-02 16:53:00,53.0,-99.9,-100.00,WNW,283,14.0,24.0,-999,-99.99,,,-99.99,,2013-03-03 00:53:00,
2013-03-02 17:10:00,53.0,-99.9,-100.00,West,263,10.0,17.0,-999,-99.99,,,-99.99,,2013-03-03 01:10:00,
2013-03-02 17:32:00,52.0,-99.9,-100.00,WNW,283,13.0,18.0,-999,-99.99,,,-99.99,,2013-03-03 01:32:00,
2013-03-02 17:42:00,52.0,-99.9,-100.00,WNW,283,13.0,18.0,-999,-99.99,,,-99.99,,2013-03-03 01:42:00,
2013-03-02 17:52:00,53.0,-99.9,-100.00,West,263,10.0,17.0,-999,-99.99,,,-99.99,,2013-03-03 01:52:00,
2013-03-02 18:01:00,53.0,-99.9,-100.00,West,263,10.0,17.0,-999,-99.99,,,-99.99,,2013-03-03 02:01:00,
2013-03-02 18:22:00,52.0,-99.9,-100.00,WNW,301,6.0,13.0,-999,-99.99,,,-99.99,,2013-03-03 02:22:00,
2013-03-02 18:32:00,51.0,-99.9,-100.00,SSW,202,1.0,9.0,-999,-99.99,,,-99.99,,2013-03-03 02:32:00,
2013-03-02 18:42:00,51.0,-99.9,-100.00,SSW,202,1.0,9.0,-999,-99.99,,,-99.99,,2013-03-03 02:42:00,
2013-03-02 18:52:00,51.0,-99.9,-100.00,SSW,202,1.0,9.0,-999,-99.99,,,-99.99,,2013-03-03 02:52:00,
2013-03-02 19:32:00,51.0,-99.9,-100.00,SSE,163,0.0,4.0,-999,-99.99,,,-99.99,,2013-03-03 03:32:00,
2013-03-02 19:42:00,51.0,-99.9,-100.00,SSE,163,0.0,4.0,-999,-99.99,,,-99.99,,2013-03-03 03:42:00,
2013-03-02 19:52:00,51.0,-99.9,-100.00,SSE,163,0.0,4.0,-999,-99.99,,,-99.99,,2013-03-03 03:52:00,
2013-03-02 20:32:00,50.0,-99.9,-100.00,WSW,241,5.0,8.0,-999,-99.99,,,-99.99,,2013-03-03 04:32:00,
2013-03-02 20:42:00,50.0,-99.9,-100.00,WSW,241,5.0,8.0,-999,-99.99,,,-99.99,,2013-03-03 04:42:00,
2013-03-02 20:52:00,50.0,-99.9,-100.00,WSW,241,5.0,8.0,-999,-99.99,,,-99.99,,2013-03-03 04:52:00,
2013-03-02 21:32:00,48.0,-99.9,-100.00,WSW,255,6.0,20.0,-999,-99.99,,,-99.99,,2013-03-03 05:32:00,
2013-03-02 21:42:00,48.0,-99.9,-100.00,WSW,255,6.0,20.0,-999,-99.99,,,-99.99,,2013-03-03 05:42:00,
2013-03-02 21:52:00,48.0,-99.9,-100.00,WSW,255,6.0,20.0,-999,-99.99,,,-99.99,,2013-03-03 05:52:00,
2013-03-02 22:02:00,49.0,-99.9,-100.00,West,262,8.0,17.0,-999,-99.99,,,-99.99,,2013-03-03 06:02:00,
2013-03-02 22:11:00,49.0,-99.9,-100.00,West,262,8.0,17.0,-999,-99.99,,,-99.99,,2013-03-03 06:11:00,
2013-03-02 22:22:00,48.0,-99.9,-100.00,WSW,239,6.0,14.0,-999,-99.99,,,-99.99,,2013-03-03 06:22:00,
2013-03-02 22:32:00,46.0,-99.9,-100.00,West,266,3.0,7.0,-999,-99.99,,,-99.99,,2013-03-03 06:32:00,
2013-03-02 22:42:00,46.0,-99.9,-100.00,West,266,3.0,7.0,-999,-99.99,,,-99.99,,2013-03-03 06:42:00,
2013-03-02 22:52:00,46.0,-99.9,-100.00,West,266,3.0,7.0,-999,-99.99,,,-99.99,,2013-03-03 06:52:00,
2013-03-02 23:22:00,47.0,-99.9,-100.00,WSW,241,10.0,14.0,-999,-99.99,,,-99.99,,2013-03-03 07:22:00,
2013-03-02 23:32:00,47.0,-99.9,-100.00,WSW,250,8.0,13.0,-999,-99.99,,,-99.99,,2013-03-03 07:32:00,
2013-03-02 23:42:00,47.0,-99.9,-100.00,WSW,250,8.0,13.0,-999,-99.99,,,-99.99,,2013-03-03 07:42:00,
2013-03-02 23:52:00,47.0,-99.9,-100.00,WSW,250,8.0,13.0,-999,-99.99,,,-99.99,,2013-03-03 07:52:00,